Time;durP1;ratioP1;P1;durP2;ratioP2;P2;SDS_P1;SDS_P2;PMS_P1;PMS_P2;Temp;Humidity;BMP_temperature;BMP_pressure;BME280_temperature;BME280_humidity;BME280_pressure;Samples;Min_cycle;Max_cycle;Signal;HPM_P1;HPM_P2
2023/09/23 00:00:56;;;;;;;33.53;20.02;;;13.50;99.90;;;;;;5057177;28;20032;-77
2023/09/23 00:03:23;;;;;;;24.88;17.08;;;13.60;99.90;;;;;;5058594;28;20036;-79
2023/09/23 00:05:52;;;;;;;26.30;17.88;;;13.60;99.90;;;;;;5060291;28;20465;-77
2023/09/23 00:08:18;;;;;;;30.52;18.98;;;13.60;99.90;;;;;;5058832;28;20517;-77
2023/09/23 00:10:45;;;;;;;26.67;17.65;;;13.50;99.90;;;;;;5058249;28;20031;-75
2023/09/23 00:13:10;;;;;;;25.88;17.08;;;13.50;99.90;;;;;;5061562;28;20033;-77
2023/09/23 00:15:41;;;;;;;27.83;17.88;;;13.50;99.90;;;;;;5061582;28;20470;-78
2023/09/23 00:18:07;;;;;;;29.98;18.42;;;13.50;99.90;;;;;;5061113;28;20033;-78
2023/09/23 00:20:33;;;;;;;25.45;16.25;;;13.60;99.90;;;;;;5061130;28;20025;-81
2023/09/23 00:22:59;;;;;;;26.15;16.48;;;13.60;99.90;;;;;;5062787;28;20033;-78
2023/09/23 00:25:25;;;;;;;23.17;16.67;;;13.50;99.90;;;;;;5063117;28;20021;-77
2023/09/23 00:27:55;;;;;;;27.88;16.55;;;13.60;99.90;;;;;;5062712;28;20414;-78
2023/09/23 00:30:22;;;;;;;24.25;17.00;;;13.50;99.90;;;;;;5061862;28;20051;-78
2023/09/23 00:32:49;;;;;;;23.50;16.83;;;13.50;99.90;;;;;;5061129;28;20617;-77
2023/09/23 00:35:15;;;;;;;28.05;18.13;;;13.60;99.90;;;;;;5059813;28;20104;-77
2023/09/23 00:37:41;;;;;;;27.63;17.45;;;13.60;99.90;;;;;;5060589;28;20029;-77
2023/09/23 00:40:23;;;;;;;25.08;16.60;;;13.60;99.90;;;;;;5060782;28;20052;-77
2023/09/23 00:42:50;;;;;;;27.52;18.10;;;13.60;99.90;;;;;;5062544;28;20804;-78
2023/09/23 00:45:17;;;;;;;34.88;20.50;;;13.60;99.90;;;;;;5062800;28;20029;-77
2023/09/23 00:47:45;;;;;;;28.05;19.63;;;13.60;99.90;;;;;;5060596;28;20026;-78
2023/09/23 00:50:17;;;;;;;29.00;20.10;;;13.60;99.90;;;;;;5060800;28;20036;-76
2023/09/23 00:52:44;;;;;;;31.55;20.02;;;13.50;99.90;;;;;;5061058;28;20032;-76
2023/09/23 00:55:10;;;;;;;34.72;20.75;;;13.50;99.90;;;;;;5062060;28;20033;-76
2023/09/23 00:57:37;;;;;;;29.73;19.83;;;13.50;99.90;;;;;;5062500;28;20025;-76
2023/09/23 01:00:04;;;;;;;32.78;21.45;;;13.40;99.90;;;;;;5062154;28;20048;-77
2023/09/23 01:02:29;;;;;;;30.83;21.02;;;13.40;99.90;;;;;;5060443;28;20016;-78
2023/09/23 01:04:55;;;;;;;31.30;19.60;;;13.40;99.90;;;;;;5061509;28;20478;-78
2023/09/23 01:07:21;;;;;;;34.38;21.02;;;13.50;99.90;;;;;;5062596;28;20021;-78
2023/09/23 01:09:47;;;;;;;32.50;21.30;;;13.40;99.90;;;;;;5060539;28;20044;-80
2023/09/23 01:12:13;;;;;;;30.63;20.85;;;13.40;99.90;;;;;;5061020;28;20096;-76
2023/09/23 01:14:39;;;;;;;33.22;20.10;;;13.40;99.90;;;;;;5061419;28;20044;-77
2023/09/23 01:17:07;;;;;;;29.70;19.70;;;13.40;99.90;;;;;;5059935;28;20017;-77
2023/09/23 01:19:34;;;;;;;34.38;20.67;;;13.40;99.90;;;;;;5061766;28;20027;-76
2023/09/23 01:22:00;;;;;;;33.47;20.67;;;13.40;99.90;;;;;;5060151;28;20033;-75
2023/09/23 01:24:30;;;;;;;35.42;20.92;;;13.40;99.90;;;;;;5058119;28;20032;-76
2023/09/23 01:26:56;;;;;;;32.22;21.33;;;13.40;99.90;;;;;;5060715;28;20029;-77
2023/09/23 01:29:23;;;;;;;34.75;22.23;;;13.40;99.90;;;;;;5060244;28;21012;-76
2023/09/23 01:32:23;;;;;;;35.05;20.75;;;13.40;99.90;;;;;;5060577;28;20084;-77
2023/09/23 01:34:49;;;;;;;36.28;22.05;;;13.30;99.90;;;;;;5060094;28;20036;-78
2023/09/23 01:37:14;;;;;;;36.28;21.25;;;13.40;99.90;;;;;;5059525;28;20045;-79
2023/09/23 01:39:41;;;;;;;35.95;21.42;;;13.40;99.90;;;;;;5060516;28;20032;-77
2023/09/23 01:42:07;;;;;;;36.53;21.50;;;13.40;99.90;;;;;;5059994;28;20106;-78
2023/09/23 01:44:33;;;;;;;33.83;21.45;;;13.30;99.90;;;;;;5058004;28;20501;-78
2023/09/23 01:46:59;;;;;;;29.50;20.42;;;13.30;99.90;;;;;;5060213;28;20021;-77
2023/09/23 01:49:25;;;;;;;36.42;21.98;;;13.30;99.90;;;;;;5060613;28;20039;-78
2023/09/23 01:51:53;;;;;;;33.25;21.60;;;13.30;99.90;;;;;;5060206;28;20045;-78
2023/09/23 01:54:19;;;;;;;38.75;21.73;;;13.30;99.90;;;;;;5061867;28;20047;-75
2023/09/23 01:56:44;;;;;;;35.63;21.20;;;13.30;99.90;;;;;;5061619;28;20028;-76
2023/09/23 01:59:11;;;;;;;38.95;21.77;;;13.30;99.90;;;;;;5059810;28;20055;-76
2023/09/23 02:01:40;;;;;;;36.17;22.75;;;13.30;99.90;;;;;;5061207;28;20016;-78
2023/09/23 02:04:07;;;;;;;35.10;22.75;;;13.30;99.90;;;;;;5059744;28;20041;-78
2023/09/23 02:06:38;;;;;;;40.53;22.50;;;13.30;99.90;;;;;;5057525;28;20032;-76
2023/09/23 02:09:04;;;;;;;37.70;22.33;;;13.30;99.90;;;;;;5060680;28;20028;-79
2023/09/23 02:11:30;;;;;;;37.55;22.98;;;13.30;99.90;;;;;;5061414;28;20061;-76
2023/09/23 02:13:55;;;;;;;38.40;23.08;;;13.30;99.90;;;;;;5059824;28;20084;-77
2023/09/23 02:16:21;;;;;;;35.15;22.08;;;13.30;99.90;;;;;;5061160;28;20402;-78
2023/09/23 02:18:50;;;;;;;33.40;22.02;;;13.30;99.90;;;;;;5057634;28;20040;-77
2023/09/23 02:21:18;;;;;;;35.97;22.33;;;13.30;99.90;;;;;;5059258;28;20374;-77
2023/09/23 02:23:43;;;;;;;32.17;21.60;;;13.30;99.90;;;;;;5060941;28;20536;-77
2023/09/23 02:26:09;;;;;;;34.92;23.17;;;13.30;99.90;;;;;;5060640;28;20025;-78
2023/09/23 02:28:35;;;;;;;39.20;22.30;;;13.30;99.90;;;;;;5059571;28;20028;-76
2023/09/23 02:31:00;;;;;;;38.30;24.33;;;13.30;99.90;;;;;;5059592;28;20052;-81
2023/09/23 02:33:26;;;;;;;35.20;22.02;;;13.20;99.90;;;;;;5059642;28;20049;-79
2023/09/23 02:35:52;;;;;;;33.80;21.13;;;13.20;99.90;;;;;;5060246;28;20052;-79
2023/09/23 02:38:21;;;;;;;37.78;21.90;;;13.20;99.90;;;;;;5059193;28;20024;-76
2023/09/23 02:40:48;;;;;;;35.60;21.45;;;13.20;99.90;;;;;;5059132;28;20029;-76
2023/09/23 02:43:14;;;;;;;34.40;21.58;;;13.10;99.90;;;;;;5059146;28;20041;-77
2023/09/23 02:45:40;;;;;;;35.35;21.92;;;13.10;99.90;;;;;;5060261;28;20024;-78
2023/09/23 02:48:06;;;;;;;34.33;22.00;;;13.10;99.90;;;;;;5059737;28;20024;-79
2023/09/23 02:50:31;;;;;;;34.38;21.42;;;13.10;99.90;;;;;;5059920;28;20553;-78
2023/09/23 02:52:59;;;;;;;33.83;21.50;;;13.10;99.90;;;;;;5058713;28;20023;-78
2023/09/23 02:55:25;;;;;;;37.72;20.95;;;13.10;99.90;;;;;;5059321;28;20072;-77
2023/09/23 02:57:54;;;;;;;37.25;23.17;;;13.10;99.90;;;;;;5059601;28;20029;-78
2023/09/23 03:00:23;;;;;;;42.53;23.60;;;13.10;99.90;;;;;;5059399;28;20458;-78
2023/09/23 03:02:54;;;;;;;32.92;20.08;;;13.10;99.90;;;;;;5058975;28;20143;-75
2023/09/23 03:05:26;;;;;;;36.08;21.90;;;13.10;99.90;;;;;;5059375;28;20037;-77
2023/09/23 03:07:57;;;;;;;33.63;20.65;;;13.10;99.90;;;;;;5058123;28;20031;-76
2023/09/23 03:10:31;;;;;;;37.38;23.30;;;13.10;99.90;;;;;;5058442;28;20041;-77
2023/09/23 03:13:06;;;;;;;;;;;13.10;99.90;;;;;;5059794;28;20128;-80
2023/09/23 03:15:50;;;;;;;35.45;20.60;;;13.10;99.90;;;;;;5059609;28;19909;-76
2023/09/23 03:18:21;;;;;;;38.67;22.05;;;13.00;99.90;;;;;;5060567;28;20175;-78
2023/09/23 03:20:49;;;;;;;33.70;21.63;;;13.00;99.90;;;;;;5059994;28;20025;-78
2023/09/23 03:23:14;;;;;;;35.20;20.50;;;13.10;99.90;;;;;;5059119;28;20067;-77
2023/09/23 03:25:48;;;;;;;35.22;21.52;;;13.00;99.90;;;;;;5060566;28;20021;-76
2023/09/23 03:28:17;;;;;;;34.63;21.33;;;13.10;99.90;;;;;;5059387;28;20072;-77
2023/09/23 03:30:44;;;;;;;40.38;23.45;;;13.10;99.90;;;;;;5059007;28;20155;-78
2023/09/23 03:33:11;;;;;;;33.35;21.40;;;13.00;99.90;;;;;;5058973;28;20086;-78
2023/09/23 03:35:37;;;;;;;37.83;21.88;;;13.00;99.90;;;;;;5059727;28;20557;-78
2023/09/23 03:38:03;;;;;;;32.70;20.85;;;13.00;99.90;;;;;;5059258;28;20138;-80
2023/09/23 03:40:31;;;;;;;34.75;20.73;;;13.00;99.90;;;;;;5058781;28;20055;-79
2023/09/23 03:42:58;;;;;;;34.85;21.23;;;13.00;99.90;;;;;;5058712;28;20040;-77
2023/09/23 03:45:24;;;;;;;34.00;19.85;;;13.00;99.90;;;;;;5059494;28;20025;-77
2023/09/23 03:47:50;;;;;;;34.05;19.88;;;13.00;99.90;;;;;;5063682;28;20025;-74
2023/09/23 03:50:16;;;;;;;33.15;20.70;;;13.00;99.90;;;;;;5063283;28;20033;-75
2023/09/23 03:52:42;;;;;;;35.03;19.98;;;13.00;99.90;;;;;;5064616;28;20094;-80
2023/09/23 03:55:11;;;;;;;37.25;20.27;;;12.90;99.90;;;;;;5064166;28;20025;-76
2023/09/23 03:57:38;;;;;;;33.08;19.83;;;12.90;99.90;;;;;;5063058;28;20033;-75
2023/09/23 04:00:17;;;;;;;30.67;19.20;;;13.00;99.90;;;;;;5063475;28;20036;-75
2023/09/23 04:02:50;;;;;;;27.10;17.35;;;12.90;99.90;;;;;;5063938;28;20827;-76
2023/09/23 04:05:16;;;;;;;28.63;18.15;;;12.90;99.90;;;;;;5062861;28;20528;-77
2023/09/23 04:07:51;;;;;;;29.35;17.70;;;12.80;99.90;;;;;;5064082;28;20020;-74
2023/09/23 04:10:18;;;;;;;28.17;16.55;;;12.90;99.90;;;;;;5063567;28;20052;-78
2023/09/23 04:12:44;;;;;;;25.95;17.17;;;12.90;99.90;;;;;;5062865;28;20021;-76
2023/09/23 04:15:10;;;;;;;27.55;16.58;;;12.90;99.90;;;;;;5062178;28;20121;-75
2023/09/23 04:17:39;;;;;;;23.40;15.60;;;12.80;99.90;;;;;;5063372;28;20036;-76
2023/09/23 04:20:09;;;;;;;27.35;17.40;;;12.80;99.90;;;;;;5061960;28;20017;-75
2023/09/23 04:22:36;;;;;;;31.73;17.27;;;12.80;99.90;;;;;;5060848;28;20516;-74
2023/09/23 04:25:06;;;;;;;27.33;17.50;;;12.80;99.90;;;;;;5061954;28;20377;-76
2023/09/23 04:27:36;;;;;;;28.15;17.58;;;12.80;99.90;;;;;;5061440;28;20028;-74
2023/09/23 04:30:11;;;;;;;28.98;17.73;;;12.80;99.90;;;;;;5062868;28;20017;-78
2023/09/23 04:32:38;;;;;;;26.63;17.20;;;12.80;99.90;;;;;;5063428;28;20029;-75
2023/09/23 04:35:08;;;;;;;26.40;16.33;;;12.80;99.90;;;;;;5062151;28;20021;-79
2023/09/23 04:37:38;;;;;;;28.70;17.05;;;12.80;99.90;;;;;;5063263;28;20085;-76
2023/09/23 04:40:11;;;;;;;27.45;15.75;;;12.80;99.90;;;;;;5062966;28;20029;-76
2023/09/23 04:42:42;;;;;;;24.30;15.68;;;12.80;99.90;;;;;;5062675;28;20017;-75
2023/09/23 04:45:08;;;;;;;27.77;16.33;;;12.80;99.90;;;;;;5062603;28;20017;-77
2023/09/23 04:47:35;;;;;;;22.73;15.00;;;12.80;99.90;;;;;;5061659;28;20140;-76
2023/09/23 04:50:05;;;;;;;23.83;14.63;;;12.80;99.90;;;;;;5061530;28;20414;-76
2023/09/23 04:52:33;;;;;;;24.80;15.23;;;12.70;99.90;;;;;;5062819;28;20028;-77
2023/09/23 04:54:59;;;;;;;21.88;14.23;;;12.70;99.90;;;;;;5060933;28;20017;-76
2023/09/23 04:57:25;;;;;;;23.27;15.25;;;12.70;99.90;;;;;;5060352;28;20678;-78
2023/09/23 04:59:52;;;;;;;25.08;15.00;;;12.70;99.90;;;;;;5061828;28;20092;-75
2023/09/23 05:02:19;;;;;;;26.17;15.77;;;12.70;99.90;;;;;;5061910;28;20167;-77
2023/09/23 05:04:45;;;;;;;25.10;16.02;;;12.70;99.90;;;;;;5063122;28;20056;-77
2023/09/23 05:07:12;;;;;;;22.83;13.68;;;12.80;99.90;;;;;;5060472;28;20846;-76
2023/09/23 05:09:41;;;;;;;21.48;11.77;;;12.70;99.90;;;;;;5061971;28;20013;-73
2023/09/23 05:12:10;;;;;;;15.73;10.18;;;12.70;99.90;;;;;;5062230;28;20071;-75
2023/09/23 05:14:36;;;;;;;15.20;9.70;;;12.70;99.90;;;;;;5061234;28;20044;-75
2023/09/23 05:17:05;;;;;;;16.58;9.20;;;12.60;99.90;;;;;;5060970;28;20043;-75
2023/09/23 05:19:32;;;;;;;17.67;9.18;;;12.60;99.90;;;;;;5059195;28;20093;-77
2023/09/23 05:21:58;;;;;;;13.48;8.50;;;12.60;99.90;;;;;;5060756;28;20025;-79
2023/09/23 05:24:26;;;;;;;13.27;8.18;;;12.50;99.90;;;;;;5059515;28;20075;-75
2023/09/23 05:26:55;;;;;;;13.15;8.82;;;12.60;99.90;;;;;;5060895;28;20051;-75
2023/09/23 05:29:22;;;;;;;13.48;8.15;;;12.50;99.90;;;;;;5061663;28;20028;-76
2023/09/23 05:31:48;;;;;;;13.60;8.57;;;12.50;99.90;;;;;;5059495;28;20013;-75
2023/09/23 05:34:15;;;;;;;11.50;8.20;;;12.50;99.90;;;;;;5061867;28;20032;-74
2023/09/23 05:36:41;;;;;;;13.27;8.38;;;12.50;99.90;;;;;;5061329;28;20070;-75
2023/09/23 05:39:06;;;;;;;14.43;8.40;;;12.50;99.90;;;;;;5062605;28;20025;-75
2023/09/23 05:41:32;;;;;;;14.90;8.43;;;12.50;99.90;;;;;;5062779;28;20029;-74
2023/09/23 05:43:59;;;;;;;12.27;7.72;;;12.60;99.90;;;;;;5059671;28;20120;-76
2023/09/23 05:46:27;;;;;;;13.15;8.07;;;12.50;99.90;;;;;;5062468;28;20482;-75
2023/09/23 05:48:53;;;;;;;11.40;7.88;;;12.50;99.90;;;;;;5061362;28;20120;-76
2023/09/23 05:51:19;;;;;;;13.55;7.10;;;12.50;99.90;;;;;;5062475;28;20437;-74
2023/09/23 05:53:45;;;;;;;12.27;7.68;;;12.50;99.90;;;;;;5062557;28;20041;-75
2023/09/23 05:56:11;;;;;;;12.32;7.60;;;12.50;99.90;;;;;;5061355;28;20028;-74
2023/09/23 05:58:37;;;;;;;11.50;7.15;;;12.60;99.90;;;;;;5062298;28;20025;-74
2023/09/23 06:01:02;;;;;;;10.50;7.13;;;12.50;99.90;;;;;;5061677;28;20021;-74
2023/09/23 06:03:28;;;;;;;11.65;7.80;;;12.50;99.90;;;;;;5061203;28;20043;-74
2023/09/23 06:05:55;;;;;;;12.13;7.45;;;12.50;99.90;;;;;;5061475;28;20029;-74
2023/09/23 06:08:21;;;;;;;11.57;7.38;;;12.50;99.90;;;;;;5061135;28;20058;-74
2023/09/23 06:10:47;;;;;;;13.23;7.88;;;12.60;99.90;;;;;;5062174;28;20025;-73
2023/09/23 06:13:13;;;;;;;11.40;7.57;;;12.50;99.90;;;;;;5058651;28;20071;-74
2023/09/23 06:15:39;;;;;;;12.32;7.43;;;12.60;99.90;;;;;;5058667;28;20478;-74
2023/09/23 06:18:06;;;;;;;12.32;8.13;;;12.60;99.90;;;;;;5060174;28;20029;-74
2023/09/23 06:20:33;;;;;;;12.90;7.80;;;12.60;99.90;;;;;;5060221;28;20041;-75
2023/09/23 06:22:59;;;;;;;16.30;7.57;;;12.60;99.90;;;;;;5059954;28;20029;-73
2023/09/23 06:25:24;;;;;;;11.35;7.93;;;12.60;99.90;;;;;;5061935;28;20036;-74
2023/09/23 06:27:50;;;;;;;11.85;7.63;;;12.60;99.90;;;;;;5061536;28;20044;-73
2023/09/23 06:30:16;;;;;;;11.77;7.07;;;12.60;99.90;;;;;;5058339;28;20029;-73
2023/09/23 06:32:47;;;;;;;10.80;7.10;;;12.60;99.90;;;;;;5060792;28;20025;-76
2023/09/23 06:35:14;;;;;;;10.65;6.88;;;12.60;99.90;;;;;;5059805;28;20033;-71
2023/09/23 06:37:40;;;;;;;10.82;7.07;;;12.60;99.90;;;;;;5061961;28;20028;-73
2023/09/23 06:40:06;;;;;;;9.73;6.43;;;12.60;99.90;;;;;;5058971;28;20041;-72
2023/09/23 06:42:31;;;;;;;11.23;6.93;;;12.70;99.90;;;;;;5059344;28;20021;-73
2023/09/23 06:44:58;;;;;;;13.40;7.25;;;12.60;99.90;;;;;;5061760;28;20088;-74
2023/09/23 06:47:25;;;;;;;11.70;7.10;;;12.70;99.90;;;;;;5060895;28;20059;-73
2023/09/23 06:49:51;;;;;;;11.55;7.60;;;12.70;99.90;;;;;;5058707;28;20028;-74
2023/09/23 06:52:16;;;;;;;14.48;7.75;;;12.70;99.90;;;;;;5061143;28;20025;-74
2023/09/23 06:54:42;;;;;;;10.82;7.07;;;12.70;99.90;;;;;;5057233;28;20032;-72
2023/09/23 06:57:08;;;;;;;11.65;7.75;;;12.70;99.90;;;;;;5057973;28;20085;-72
2023/09/23 06:59:33;;;;;;;13.30;8.23;;;12.70;99.90;;;;;;5061541;28;20025;-72
2023/09/23 07:01:59;;;;;;;15.98;8.73;;;12.70;99.90;;;;;;5057669;28;20033;-73
2023/09/23 07:04:24;;;;;;;14.07;8.57;;;12.70;99.90;;;;;;5057548;28;20033;-74
2023/09/23 07:06:50;;;;;;;15.38;9.63;;;12.80;99.90;;;;;;5060530;28;20021;-71
2023/09/23 07:09:16;;;;;;;14.60;9.40;;;12.70;99.90;;;;;;5059998;28;20052;-71
2023/09/23 07:11:42;;;;;;;15.95;10.68;;;12.70;99.90;;;;;;5059985;28;20029;-72
2023/09/23 07:14:07;;;;;;;21.25;12.15;;;12.70;99.90;;;;;;5058711;28;20025;-71
2023/09/23 07:16:33;;;;;;;18.58;12.27;;;12.70;99.90;;;;;;5059785;28;20051;-72
2023/09/23 07:19:00;;;;;;;15.60;10.90;;;12.80;99.90;;;;;;5058734;28;20071;-72
2023/09/23 07:21:26;;;;;;;20.75;12.45;;;12.80;99.90;;;;;;5059792;28;20028;-73
2023/09/23 07:23:52;;;;;;;19.98;12.27;;;12.90;99.90;;;;;;5060660;28;20037;-74
2023/09/23 07:26:20;;;;;;;20.50;11.32;;;13.00;99.90;;;;;;5060295;28;20134;-71
2023/09/23 07:28:45;;;;;;;20.05;11.18;;;13.10;99.90;;;;;;5059170;28;20060;-71
2023/09/23 07:31:11;;;;;;;16.52;10.85;;;13.20;99.90;;;;;;5058296;28;20163;-72
2023/09/23 07:33:37;;;;;;;16.92;11.20;;;13.20;99.90;;;;;;5060821;28;20358;-74
2023/09/23 07:36:10;;;;;;;17.15;10.15;;;13.30;99.90;;;;;;5055542;28;20501;-71
2023/09/23 07:38:35;;;;;;;16.25;9.80;;;13.30;99.90;;;;;;5059086;28;20032;-71
2023/09/23 07:41:02;;;;;;;19.75;10.95;;;13.40;99.90;;;;;;5058661;28;20025;-71
2023/09/23 07:43:28;;;;;;;15.68;10.50;;;13.40;99.90;;;;;;5057520;28;20108;-71
2023/09/23 07:45:54;;;;;;;14.68;9.68;;;13.60;99.90;;;;;;5060336;28;20052;-71
2023/09/23 07:48:20;;;;;;;15.18;9.35;;;13.80;99.90;;;;;;5060727;28;20044;-71
2023/09/23 07:50:46;;;;;;;13.88;9.07;;;14.00;99.90;;;;;;5059918;28;20515;-71
2023/09/23 07:53:11;;;;;;;12.80;8.30;;;14.20;99.90;;;;;;5061000;28;20036;-71
2023/09/23 07:55:37;;;;;;;13.60;8.73;;;14.30;99.90;;;;;;5059391;28;20025;-69
2023/09/23 07:58:08;;;;;;;12.60;9.05;;;14.40;99.90;;;;;;5054752;28;20025;-72
2023/09/23 08:00:33;;;;;;;12.55;8.63;;;14.50;99.90;;;;;;5059808;28;20143;-71
2023/09/23 08:02:59;;;;;;;12.95;8.10;;;14.60;99.90;;;;;;5054146;28;20033;-71
2023/09/23 08:05:26;;;;;;;14.52;8.60;;;14.70;99.90;;;;;;5055303;28;20114;-71
2023/09/23 08:07:53;;;;;;;12.30;8.55;;;14.90;99.90;;;;;;5054916;28;20036;-71
2023/09/23 08:10:20;;;;;;;12.77;8.02;;;15.10;99.90;;;;;;5056972;28;20407;-70
2023/09/23 08:12:45;;;;;;;13.02;8.52;;;15.20;99.90;;;;;;5047782;28;20616;-71
2023/09/23 08:15:11;;;;;;;12.38;9.25;;;15.40;99.90;;;;;;5057655;28;20036;-72
2023/09/23 08:17:40;;;;;;;16.83;8.52;;;15.50;99.90;;;;;;5057215;28;20052;-70
2023/09/23 08:20:23;;;;;;;13.07;9.52;;;15.50;99.90;;;;;;5058906;28;20040;-71
2023/09/23 08:22:50;;;;;;;15.40;10.55;;;15.50;99.90;;;;;;5056621;28;20029;-71
2023/09/23 08:25:17;;;;;;;14.43;9.90;;;15.60;99.90;;;;;;5058564;28;20080;-72
2023/09/23 08:27:43;;;;;;;13.82;10.55;;;15.50;99.90;;;;;;5058745;28;20050;-72
2023/09/23 08:30:10;;;;;;;15.57;11.10;;;15.40;99.90;;;;;;5060698;28;20048;-71
2023/09/23 08:32:39;;;;;;;19.33;13.25;;;15.30;99.90;;;;;;5058868;28;20104;-72
2023/09/23 08:35:06;;;;;;;20.25;14.98;;;15.30;99.90;;;;;;5060723;28;20021;-69
2023/09/23 08:37:32;;;;;;;22.00;16.98;;;15.20;99.90;;;;;;5059225;28;20036;-72
2023/09/23 08:39:57;;;;;;;26.92;19.60;;;15.10;99.90;;;;;;5061735;28;20029;-74
2023/09/23 08:42:24;;;;;;;26.83;21.33;;;15.00;99.90;;;;;;5061603;28;20048;-74
2023/09/23 08:44:50;;;;;;;29.80;21.38;;;14.90;99.90;;;;;;5059659;28;20496;-70
2023/09/23 08:47:18;;;;;;;32.88;23.20;;;14.90;99.90;;;;;;5061423;28;20064;-74
2023/09/23 08:49:49;;;;;;;33.72;24.90;;;14.80;99.90;;;;;;5063140;28;20017;-71
2023/09/23 08:52:18;;;;;;;35.72;24.52;;;14.90;99.90;;;;;;5063439;28;20032;-69
2023/09/23 08:54:49;;;;;;;34.13;24.98;;;14.90;99.90;;;;;;5063232;28;20025;-70
2023/09/23 08:57:20;;;;;;;36.38;25.45;;;14.90;99.90;;;;;;5063232;28;20059;-72
2023/09/23 08:59:45;;;;;;;33.47;23.80;;;14.80;99.90;;;;;;5057532;28;20082;-71
2023/09/23 09:02:16;;;;;;;32.90;24.27;;;14.80;99.90;;;;;;5060949;28;20500;-74
2023/09/23 09:04:42;;;;;;;33.50;23.25;;;14.70;99.90;;;;;;5063687;28;20044;-71
2023/09/23 09:07:08;;;;;;;30.60;20.40;;;14.70;99.90;;;;;;5061500;28;20044;-72
2023/09/23 09:09:36;;;;;;;30.58;20.73;;;14.70;99.90;;;;;;5063742;28;20451;-71
2023/09/23 09:12:02;;;;;;;29.35;19.92;;;14.60;99.90;;;;;;5060805;28;20024;-71
2023/09/23 09:14:28;;;;;;;28.13;19.63;;;14.60;99.90;;;;;;5058612;28;20064;-72
2023/09/23 09:16:54;;;;;;;29.27;19.45;;;14.60;99.90;;;;;;5060378;28;20032;-73
2023/09/23 09:19:19;;;;;;;28.90;17.08;;;14.60;99.90;;;;;;5062525;28;20025;-73
2023/09/23 09:21:45;;;;;;;26.95;16.55;;;14.70;99.90;;;;;;5062879;28;20486;-70
2023/09/23 09:24:11;;;;;;;26.33;16.58;;;14.60;99.90;;;;;;5059496;28;20069;-72
2023/09/23 09:26:38;;;;;;;26.23;16.70;;;14.60;99.90;;;;;;5061590;28;20017;-76
2023/09/23 09:29:04;;;;;;;24.80;14.73;;;14.60;99.90;;;;;;5061032;28;20429;-71
2023/09/23 09:31:35;;;;;;;22.02;14.95;;;14.60;99.90;;;;;;5058610;28;20031;-70
2023/09/23 09:34:09;;;;;;;22.20;14.35;;;14.60;99.90;;;;;;5061980;28;20091;-72
2023/09/23 09:36:39;;;;;;;22.02;15.40;;;14.70;99.90;;;;;;5060317;28;20036;-71
2023/09/23 09:39:07;;;;;;;23.80;15.48;;;14.70;99.90;;;;;;5062679;28;20029;-72
2023/09/23 09:42:00;;;;;;;22.52;14.05;;;14.70;99.90;;;;;;5060984;28;20071;-73
2023/09/23 09:44:28;;;;;;;20.85;13.55;;;14.80;99.90;;;;;;5062158;28;20053;-73
2023/09/23 09:47:00;;;;;;;22.42;14.93;;;14.80;99.90;;;;;;5063235;28;20017;-73
2023/09/23 09:49:26;;;;;;;20.48;14.05;;;14.80;99.90;;;;;;5062371;28;20073;-72
2023/09/23 09:51:53;;;;;;;20.63;14.02;;;14.80;99.90;;;;;;5061887;28;20021;-73
2023/09/23 09:54:22;;;;;;;20.95;14.05;;;14.80;99.90;;;;;;5062261;28;20062;-73
2023/09/23 09:56:52;;;;;;;22.33;13.98;;;14.90;99.90;;;;;;5062689;28;20023;-72
2023/09/23 09:59:33;;;;;;;25.08;15.75;;;14.90;99.90;;;;;;5061607;28;20017;-72
2023/09/23 10:01:59;;;;;;;24.70;14.25;;;15.00;99.90;;;;;;5057279;28;20025;-74
2023/09/23 10:04:32;;;;;;;21.75;15.55;;;14.90;99.90;;;;;;5061719;28;20057;-72
2023/09/23 10:06:59;;;;;;;21.20;13.52;;;15.00;99.90;;;;;;5060878;28;20029;-71
2023/09/23 10:09:29;;;;;;;22.88;14.23;;;15.00;99.90;;;;;;5059642;28;20029;-74
2023/09/23 10:11:56;;;;;;;21.70;14.90;;;14.90;99.90;;;;;;5059596;28;20486;-73
2023/09/23 10:14:22;;;;;;;23.38;16.23;;;15.00;99.90;;;;;;5056853;28;20394;-72
2023/09/23 10:16:50;;;;;;;23.92;15.93;;;15.00;99.90;;;;;;5058980;28;20037;-73
2023/09/23 10:19:17;;;;;;;29.13;16.70;;;14.90;99.90;;;;;;5052262;28;20032;-71
2023/09/23 10:21:47;;;;;;;23.35;15.93;;;15.00;99.90;;;;;;5060695;28;20028;-72
2023/09/23 10:24:20;;;;;;;25.67;16.08;;;15.00;99.90;;;;;;5060305;28;20072;-73
2023/09/23 10:26:46;;;;;;;24.70;16.70;;;15.00;99.90;;;;;;5060009;28;20078;-73
2023/09/23 10:29:11;;;;;;;25.35;17.10;;;15.10;99.90;;;;;;5059082;28;20028;-71
2023/09/23 10:31:38;;;;;;;26.65;17.00;;;15.10;99.90;;;;;;5052874;28;20029;-72
2023/09/23 10:34:06;;;;;;;23.52;16.83;;;15.10;99.90;;;;;;5059112;28;20115;-72
2023/09/23 10:36:32;;;;;;;24.25;17.50;;;15.10;99.90;;;;;;5058483;28;20033;-70
2023/09/23 10:38:59;;;;;;;26.73;16.83;;;15.10;99.90;;;;;;5056415;28;20025;-75
2023/09/23 10:41:36;;;;;;;25.05;16.38;;;15.10;99.90;;;;;;5054873;28;20485;-71
2023/09/23 10:44:02;;;;;;;23.85;17.30;;;15.10;99.90;;;;;;5059240;28;20045;-71
2023/09/23 10:46:29;;;;;;;23.83;16.83;;;15.00;99.90;;;;;;5060558;28;20029;-73
2023/09/23 10:48:54;;;;;;;22.98;16.33;;;15.00;99.90;;;;;;5060847;28;20025;-71
2023/09/23 10:51:22;;;;;;;24.17;16.38;;;14.90;99.90;;;;;;5062078;28;20099;-72
2023/09/23 10:53:49;;;;;;;24.77;16.60;;;14.90;99.90;;;;;;5061174;28;20031;-72
2023/09/23 10:56:19;;;;;;;24.77;16.10;;;15.00;99.90;;;;;;5061184;28;20040;-72
2023/09/23 10:58:44;;;;;;;25.45;15.55;;;15.00;99.90;;;;;;5060069;28;20032;-72
2023/09/23 11:01:10;;;;;;;20.67;15.02;;;15.10;99.90;;;;;;5060608;28;20029;-72
2023/09/23 11:03:40;;;;;;;20.70;13.50;;;15.20;99.90;;;;;;5061336;28;20043;-72
2023/09/23 11:06:08;;;;;;;21.30;13.77;;;15.30;99.90;;;;;;5060381;28;20027;-72
2023/09/23 11:08:36;;;;;;;20.33;13.45;;;15.40;99.90;;;;;;5061332;28;20021;-74
2023/09/23 11:11:02;;;;;;;18.55;11.95;;;15.40;99.90;;;;;;5059747;28;20128;-73
2023/09/23 11:13:27;;;;;;;23.00;13.25;;;15.60;99.90;;;;;;5060735;28;20390;-72
2023/09/23 11:15:53;;;;;;;21.83;13.10;;;15.60;99.90;;;;;;5060810;28;20017;-72
2023/09/23 11:18:19;;;;;;;21.15;12.40;;;15.70;99.90;;;;;;5060624;28;20056;-73
2023/09/23 11:20:46;;;;;;;27.98;12.27;;;15.90;99.90;;;;;;5060174;28;20472;-73
2023/09/23 11:23:13;;;;;;;17.30;12.15;;;15.90;99.90;;;;;;5060900;28;20043;-71
2023/09/23 11:25:44;;;;;;;16.08;10.82;;;16.00;99.90;;;;;;5061403;28;20036;-73
2023/09/23 11:28:24;;;;;;;15.73;10.73;;;15.90;99.90;;;;;;5059618;28;20025;-73
2023/09/23 11:30:53;;;;;;;15.82;10.65;;;15.90;99.90;;;;;;5061802;28;20039;-72
2023/09/23 11:33:21;;;;;;;18.85;9.85;;;15.80;99.90;;;;;;5061363;28;20021;-71
2023/09/23 11:35:46;;;;;;;16.20;9.30;;;15.80;99.90;;;;;;5059270;28;20055;-74
2023/09/23 11:38:13;;;;;;;14.23;9.45;;;15.80;99.90;;;;;;5058884;28;20116;-72
2023/09/23 11:40:39;;;;;;;13.18;9.07;;;15.70;99.90;;;;;;5057297;28;20033;-72
2023/09/23 11:43:05;;;;;;;22.30;9.63;;;15.70;99.90;;;;;;5057913;28;20128;-73
2023/09/23 11:45:32;;;;;;;18.85;9.30;;;15.80;99.90;;;;;;5058400;28;20037;-73
2023/09/23 11:47:59;;;;;;;13.48;8.80;;;15.80;99.90;;;;;;5056480;28;20053;-73
2023/09/23 11:50:25;;;;;;;23.17;9.30;;;15.80;99.90;;;;;;5060965;28;20029;-73
2023/09/23 11:52:54;;;;;;;12.77;7.82;;;15.90;99.90;;;;;;5059863;28;20049;-74
2023/09/23 11:55:22;;;;;;;9.43;6.80;;;16.10;99.90;;;;;;5060404;28;20032;-70
2023/09/23 11:57:54;;;;;;;12.60;8.57;;;16.30;99.90;;;;;;5055169;28;20034;-73
2023/09/23 12:00:20;;;;;;;11.73;8.55;;;16.40;99.90;;;;;;5053714;28;20027;-73
2023/09/23 12:02:48;;;;;;;17.42;8.63;;;16.40;99.90;;;;;;5057728;28;20060;-74
2023/09/23 12:05:16;;;;;;;17.65;7.60;;;16.50;99.90;;;;;;5053837;28;20029;-72
2023/09/23 12:07:42;;;;;;;12.10;7.65;;;16.70;99.90;;;;;;5060467;28;20025;-73
2023/09/23 12:10:09;;;;;;;11.23;7.18;;;16.90;99.90;;;;;;5062546;28;20032;-71
2023/09/23 12:12:36;;;;;;;10.50;7.00;;;17.10;99.90;;;;;;5064322;28;20029;-71
2023/09/23 12:15:04;;;;;;;9.75;6.80;;;17.30;99.90;;;;;;5061769;28;20048;-69
2023/09/23 12:17:30;;;;;;;9.73;5.95;;;17.50;99.90;;;;;;5062948;28;20029;-75
2023/09/23 12:19:55;;;;;;;10.65;6.25;;;17.70;99.90;;;;;;5062879;28;20028;-72
2023/09/23 12:22:27;;;;;;;8.82;5.82;;;17.80;99.90;;;;;;5064959;28;20036;-72
2023/09/23 12:24:53;;;;;;;8.43;5.40;;;17.90;99.90;;;;;;5063372;28;20153;-71
2023/09/23 12:27:19;;;;;;;9.77;6.00;;;18.10;99.90;;;;;;5064531;28;20496;-69
2023/09/23 12:29:45;;;;;;;10.15;5.65;;;18.20;99.90;;;;;;5063584;28;20025;-72
2023/09/23 12:32:11;;;;;;;7.30;5.75;;;18.20;99.90;;;;;;5064400;28;20031;-71